createdAt,value
2019-04-22T00:00:40.739Z,99.90
2019-04-22T00:01:20.540Z,1.00
2019-04-22T00:01:56.933Z,1.00
2019-04-22T00:02:29.891Z,99.90
2019-04-22T00:03:09.190Z,99.90
2019-04-22T00:03:47.458Z,99.90
2019-04-22T00:04:26.995Z,99.90
2019-04-22T00:05:06.149Z,1.00
2019-04-22T00:05:53.199Z,1.00
2019-04-22T00:06:27.411Z,1.00
2019-04-22T00:07:07.094Z,88.90
2019-04-22T00:07:45.070Z,99.90
2019-04-22T00:08:16.796Z,92.20
2019-04-22T00:08:59.575Z,1.00
2019-04-22T00:09:31.089Z,1.00
2019-04-22T00:10:11.534Z,1.00
2019-04-22T00:10:50.337Z,49.80
2019-04-22T00:11:25.949Z,1.00
2019-04-22T00:11:59.276Z,1.00
2019-04-22T00:12:37.471Z,1.00
2019-04-22T00:13:10.952Z,99.90
2019-04-22T00:14:19.200Z,99.90
2019-04-22T00:14:52.455Z,1.00
2019-04-22T00:15:28.032Z,1.00
2019-04-22T00:16:07.155Z,1.00
2019-04-22T00:16:56.658Z,1.00
2019-04-22T00:18:09.669Z,1.00
2019-04-22T00:18:56.412Z,99.90
2019-04-22T00:19:24.331Z,99.90
2019-04-22T00:19:57.641Z,1.00
2019-04-22T00:20:29.959Z,1.00
2019-04-22T00:21:04.899Z,1.00
2019-04-22T00:22:26.071Z,1.00
2019-04-22T00:22:52.330Z,1.00
2019-04-22T00:23:37.708Z,1.00
2019-04-22T00:24:04.415Z,1.00
2019-04-22T00:24:44.526Z,66.20
2019-04-22T00:25:19.553Z,99.90
2019-04-22T00:25:55.786Z,80.30
2019-04-22T00:27:13.774Z,99.90
2019-04-22T00:27:47.733Z,99.90
2019-04-22T00:28:24.868Z,1.00
2019-04-22T00:28:59.310Z,1.00
2019-04-22T00:30:14.914Z,99.90
2019-04-22T00:30:45.255Z,10.20
2019-04-22T00:31:40.577Z,1.00
2019-04-22T00:32:19.844Z,99.90
2019-04-22T00:33:04.804Z,1.00
2019-04-22T00:33:38.884Z,1.00
2019-04-22T00:34:18.644Z,1.00
2019-04-22T00:34:53.523Z,1.00
2019-04-22T00:35:29.329Z,45.00
2019-04-22T00:36:08.715Z,1.00
2019-04-22T00:36:46.574Z,1.00
2019-04-22T00:37:25.165Z,1.00
2019-04-22T00:37:59.767Z,1.00
2019-04-22T00:39:18.440Z,1.00
2019-04-22T00:39:48.852Z,6.30
2019-04-22T00:40:20.997Z,99.90
2019-04-22T00:40:59.105Z,1.00
2019-04-22T00:41:37.181Z,1.00
2019-04-22T00:42:10.059Z,1.00
2019-04-22T00:42:47.687Z,1.00
2019-04-22T00:43:19.931Z,99.90
2019-04-22T00:44:05.331Z,1.00
2019-04-22T00:45:11.790Z,99.90
2019-04-22T00:45:44.743Z,1.00
2019-04-22T00:46:26.421Z,99.90
2019-04-22T00:47:01.817Z,1.00
2019-04-22T00:47:36.708Z,1.00
2019-04-22T00:48:15.937Z,1.00
2019-04-22T00:48:57.576Z,1.00
2019-04-22T00:49:59.797Z,1.00
2019-04-22T00:50:59.235Z,99.90
2019-04-22T00:51:17.468Z,1.00
2019-04-22T00:52:01.012Z,99.90
2019-04-22T00:52:23.774Z,1.00
2019-04-22T00:53:04.365Z,1.00
2019-04-22T00:53:36.099Z,68.80
2019-04-22T00:54:07.293Z,99.90
2019-04-22T00:54:53.259Z,99.90
2019-04-22T00:55:24.774Z,1.00
2019-04-22T00:56:55.903Z,56.70
2019-04-22T00:57:30.849Z,1.00
2019-04-22T00:58:08.018Z,1.00
2019-04-22T00:58:43.912Z,1.00
2019-04-22T00:59:17.215Z,99.90
2019-04-22T01:00:03.402Z,1.00
2019-04-22T01:00:34.144Z,1.00
2019-04-22T01:01:14.076Z,99.90
2019-04-22T01:01:45.649Z,99.90
2019-04-22T01:02:28.022Z,99.90
2019-04-22T01:03:01.671Z,99.90
2019-04-22T01:03:44.827Z,99.90
2019-04-22T01:04:46.422Z,99.90
2019-04-22T01:05:30.569Z,99.90
2019-04-22T01:05:56.525Z,99.90
2019-04-22T01:06:32.447Z,99.90
2019-04-22T01:07:11.652Z,99.90
2019-04-22T01:07:44.796Z,99.90
2019-04-22T01:08:30.589Z,62.00
2019-04-22T01:09:38.932Z,99.90
2019-04-22T01:10:12.822Z,99.90
2019-04-22T01:10:49.850Z,1.00
2019-04-22T01:12:04.261Z,1.00
2019-04-22T01:12:39.885Z,99.90
2019-04-22T01:13:14.191Z,1.00
2019-04-22T01:13:44.302Z,1.00
2019-04-22T01:14:23.857Z,1.00
2019-04-22T01:15:00.989Z,1.00
2019-04-22T01:15:40.264Z,1.00
2019-04-22T01:16:13.794Z,1.00
2019-04-22T01:16:48.974Z,1.00
2019-04-22T01:17:27.697Z,1.00
2019-04-22T01:17:57.899Z,1.00
2019-04-22T01:18:36.237Z,1.00
2019-04-22T01:19:12.307Z,1.00
2019-04-22T01:19:52.598Z,99.90
2019-04-22T01:20:45.778Z,1.00
2019-04-22T01:21:39.843Z,1.00
2019-04-22T01:22:16.955Z,1.00
2019-04-22T01:22:52.186Z,1.00
2019-04-22T01:23:30.017Z,1.00
2019-04-22T01:24:02.520Z,1.00
2019-04-22T01:24:38.809Z,99.90
2019-04-22T01:25:21.681Z,1.00
2019-04-22T01:25:49.538Z,31.20
2019-04-22T01:26:33.133Z,1.00
2019-04-22T01:27:03.655Z,1.00
2019-04-22T01:27:41.818Z,1.00
2019-04-22T01:28:14.191Z,1.00
2019-04-22T01:28:50.422Z,1.00
2019-04-22T01:29:26.519Z,1.00
2019-04-22T01:30:00.965Z,1.00
2019-04-22T01:30:35.017Z,1.00
2019-04-22T01:31:08.330Z,1.00
2019-04-22T01:31:40.624Z,1.00
2019-04-22T01:32:22.519Z,1.00
2019-04-22T01:32:54.308Z,1.00
2019-04-22T01:33:35.266Z,1.00
2019-04-22T01:34:19.815Z,1.00
2019-04-22T01:34:53.775Z,1.00
2019-04-22T01:35:28.655Z,1.00
2019-04-22T01:36:15.648Z,1.00
2019-04-22T01:36:48.586Z,1.00
2019-04-22T01:37:23.998Z,1.00
2019-04-22T01:37:58.888Z,1.00
2019-04-22T01:38:39.328Z,1.00
2019-04-22T01:39:18.698Z,1.00
2019-04-22T01:40:03.227Z,1.00
2019-04-22T01:40:31.575Z,1.00
2019-04-22T01:41:08.332Z,1.00
2019-04-22T01:41:48.870Z,1.00
2019-04-22T01:42:15.750Z,1.00
2019-04-22T01:43:01.906Z,1.00
2019-04-22T01:43:33.524Z,1.00
2019-04-22T01:44:16.389Z,10.60
2019-04-22T01:44:40.550Z,2.70
2019-04-22T01:45:18.400Z,1.00
2019-04-22T01:45:56.174Z,18.60
2019-04-22T01:46:31.793Z,55.80
2019-04-22T01:47:12.832Z,64.00
2019-04-22T01:47:45.232Z,5.20
2019-04-22T01:48:17.761Z,1.00
2019-04-22T01:48:57.389Z,1.00
2019-04-22T01:50:10.203Z,1.00
2019-04-22T01:50:39.850Z,1.00
2019-04-22T01:51:22.257Z,1.00
2019-04-22T01:52:29.658Z,4.90
2019-04-22T01:53:56.577Z,48.80
2019-04-22T01:54:29.933Z,60.80
2019-04-22T01:54:55.601Z,55.70
2019-04-22T01:56:05.460Z,1.00
2019-04-22T01:56:46.687Z,1.00
2019-04-22T01:57:20.720Z,1.00
2019-04-22T01:57:58.014Z,1.00
2019-04-22T01:58:31.156Z,1.00
2019-04-22T01:59:01.328Z,4.20
2019-04-22T01:59:38.421Z,35.30
2019-04-22T02:00:11.305Z,15.80
2019-04-22T02:01:14.743Z,1.00
2019-04-22T02:01:41.605Z,1.00
2019-04-22T02:02:14.494Z,1.00
2019-04-22T02:02:52.126Z,1.00
2019-04-22T02:03:25.979Z,1.00
2019-04-22T02:04:02.780Z,1.00
2019-04-22T02:04:36.797Z,18.10
2019-04-22T02:05:12.006Z,29.10
2019-04-22T02:05:43.999Z,37.60
2019-04-22T02:06:23.417Z,14.70
2019-04-22T02:07:01.935Z,48.40
2019-04-22T02:07:35.073Z,39.50
2019-04-22T02:08:18.045Z,27.20
2019-04-22T02:09:55.139Z,90.10
2019-04-22T02:10:44.569Z,83.90
2019-04-22T02:11:15.967Z,56.90
2019-04-22T02:13:00.154Z,62.30
2019-04-22T02:13:36.341Z,68.20
2019-04-22T02:14:16.966Z,83.80
2019-04-22T02:14:47.182Z,98.00
2019-04-22T02:15:24.067Z,99.90
2019-04-22T02:15:58.806Z,99.90
2019-04-22T02:16:36.147Z,99.90
2019-04-22T02:17:17.685Z,99.90
2019-04-22T02:17:54.774Z,99.90
2019-04-22T02:18:23.184Z,99.90
2019-04-22T02:19:01.162Z,99.90
2019-04-22T02:19:37.676Z,99.90
2019-04-22T02:20:27.002Z,99.90
2019-04-22T02:20:43.008Z,99.90
2019-04-22T02:21:20.211Z,99.90
2019-04-22T02:21:56.484Z,99.90
2019-04-22T02:22:50.077Z,99.90
2019-04-22T02:23:45.164Z,99.90
2019-04-22T02:23:53.734Z,99.90
2019-04-22T02:24:38.329Z,99.90
2019-04-22T02:25:08.563Z,99.90
2019-04-22T02:25:50.934Z,99.30
2019-04-22T02:26:27.208Z,99.90
2019-04-22T02:26:58.186Z,99.90
2019-04-22T02:27:46.012Z,99.90
2019-04-22T02:28:20.018Z,99.90
2019-04-22T02:28:58.098Z,99.90
2019-04-22T02:29:27.043Z,99.90
2019-04-22T02:29:56.437Z,99.90
2019-04-22T02:30:50.673Z,99.90
2019-04-22T02:31:25.995Z,99.90
2019-04-22T02:31:55.970Z,99.90
2019-04-22T02:32:49.481Z,99.90
2019-04-22T02:34:56.917Z,63.80
2019-04-22T02:35:36.524Z,55.40
2019-04-22T02:36:19.804Z,53.40
2019-04-22T02:36:34.094Z,46.80
2019-04-22T02:37:18.764Z,39.90
2019-04-22T02:37:45.456Z,28.60
2019-04-22T02:38:49.011Z,19.80
2019-04-22T02:39:07.136Z,34.10
2019-04-22T02:39:57.910Z,21.90
2019-04-22T02:40:17.291Z,13.80
2019-04-22T02:41:08.719Z,2.30
2019-04-22T02:41:31.041Z,1.00
2019-04-22T02:42:32.403Z,1.00
2019-04-22T02:43:34.164Z,1.00
2019-04-22T02:44:02.070Z,1.00
2019-04-22T02:44:28.444Z,1.00
2019-04-22T02:44:58.494Z,1.00
2019-04-22T02:46:03.054Z,1.00
2019-04-22T02:46:34.820Z,1.00
2019-04-22T02:47:09.944Z,1.00
2019-04-22T02:50:28.596Z,1.00
2019-04-22T02:51:40.849Z,1.00
2019-04-22T02:52:00.398Z,1.00
2019-04-22T02:52:25.518Z,1.00
2019-04-22T02:52:58.063Z,1.00
2019-04-22T02:54:00.525Z,1.00
2019-04-22T02:54:35.519Z,1.00
2019-04-22T02:55:25.230Z,1.00
2019-04-22T02:56:15.714Z,1.00
2019-04-22T02:56:34.047Z,1.00
2019-04-22T02:57:19.327Z,1.00
2019-04-22T02:58:27.643Z,1.00
2019-04-22T02:59:08.071Z,1.00
2019-04-22T02:59:35.082Z,1.00
2019-04-22T03:00:12.239Z,1.00
2019-04-22T03:01:01.486Z,1.00
2019-04-22T03:01:54.258Z,1.00
2019-04-22T03:02:43.069Z,1.00
2019-04-22T03:03:25.489Z,16.20
2019-04-22T03:05:00.397Z,1.00
2019-04-22T03:06:38.394Z,1.00
2019-04-22T03:07:14.709Z,1.00
2019-04-22T03:08:39.676Z,72.30
2019-04-22T03:09:16.593Z,99.90
2019-04-22T03:09:50.812Z,64.50
2019-04-22T03:10:31.534Z,96.00
2019-04-22T03:11:42.703Z,99.90
2019-04-22T03:12:41.626Z,99.90
2019-04-22T03:13:29.171Z,99.90
2019-04-22T03:14:38.243Z,99.90
2019-04-22T03:15:09.493Z,99.90
2019-04-22T03:15:55.365Z,99.90
2019-04-22T03:16:36.666Z,99.90
2019-04-22T03:17:15.949Z,99.90
2019-04-22T03:19:35.240Z,99.90
2019-04-22T03:20:33.919Z,29.90
2019-04-22T03:21:15.944Z,29.00
2019-04-22T03:21:51.828Z,29.90
2019-04-22T03:22:26.469Z,40.20
2019-04-22T03:23:05.732Z,62.70
2019-04-22T03:23:51.438Z,99.90
2019-04-22T03:24:25.843Z,99.90
2019-04-22T03:25:05.910Z,99.90
2019-04-22T03:25:51.431Z,99.90
2019-04-22T03:26:43.258Z,99.90
2019-04-22T03:27:38.816Z,99.90
2019-04-22T03:28:31.809Z,99.90
2019-04-22T03:28:58.664Z,99.90
2019-04-22T03:33:46.844Z,99.90
2019-04-22T03:35:37.173Z,99.90
2019-04-22T03:36:11.971Z,99.90
2019-04-22T03:37:07.052Z,99.90
2019-04-22T03:37:21.458Z,99.90
2019-04-22T03:39:38.042Z,99.90
2019-04-22T03:40:04.363Z,99.90
2019-04-22T03:41:19.395Z,99.90
2019-04-22T03:42:21.034Z,99.90
2019-04-22T03:43:42.198Z,99.90
2019-04-22T03:44:31.856Z,99.90
2019-04-22T03:45:45.627Z,99.90
2019-04-22T03:46:44.794Z,99.90
2019-04-22T03:48:15.894Z,99.90
2019-04-22T03:49:11.699Z,99.90
2019-04-22T03:49:48.210Z,99.90
2019-04-22T03:50:20.721Z,99.90
2019-04-22T03:50:37.420Z,99.90
2019-04-22T03:52:27.247Z,99.90
2019-04-22T03:53:20.988Z,99.90
2019-04-22T03:53:48.258Z,99.90
2019-04-22T03:55:05.104Z,99.90
2019-04-22T03:55:28.987Z,99.90
2019-04-22T03:56:19.132Z,99.90
2019-04-22T03:57:40.569Z,99.90
2019-04-22T03:57:55.969Z,99.90
2019-04-22T03:58:39.238Z,99.90
2019-04-22T03:59:20.043Z,99.90
2019-04-22T03:59:48.087Z,99.90
2019-04-22T04:00:26.507Z,99.90
2019-04-22T04:00:55.352Z,99.90
2019-04-22T04:02:13.932Z,99.90
2019-04-22T04:02:45.877Z,99.90
2019-04-22T04:04:19.213Z,99.90
2019-04-22T04:04:33.349Z,99.90
2019-04-22T04:05:19.656Z,99.90
2019-04-22T04:06:18.000Z,99.90
2019-04-22T04:07:45.621Z,99.90
2019-04-22T04:08:38.815Z,99.90
2019-04-22T04:09:58.252Z,99.90
2019-04-22T04:10:58.129Z,99.90
2019-04-22T04:12:56.567Z,99.90
2019-04-22T04:14:53.967Z,99.90
2019-04-22T04:15:23.581Z,99.90
2019-04-22T04:15:51.135Z,99.90
2019-04-22T04:18:39.575Z,99.90
2019-04-22T04:19:07.750Z,99.90
2019-04-22T04:20:03.499Z,99.90
2019-04-22T04:20:10.600Z,99.90
2019-04-22T04:20:44.727Z,99.90
2019-04-22T04:23:17.097Z,99.90
2019-04-22T04:24:02.953Z,99.90
2019-04-22T04:24:32.703Z,99.90
2019-04-22T04:25:08.245Z,99.90
2019-04-22T04:27:03.774Z,99.90
2019-04-22T04:27:41.446Z,99.90
2019-04-22T04:29:27.815Z,99.90
2019-04-22T04:30:20.968Z,99.90
2019-04-22T04:31:17.729Z,99.90
2019-04-22T04:31:32.709Z,99.90
2019-04-22T04:32:20.569Z,99.90
2019-04-22T04:33:22.916Z,99.90
2019-04-22T04:33:57.687Z,99.90
2019-04-22T04:34:58.950Z,99.90
2019-04-22T04:35:48.146Z,99.90
2019-04-22T04:36:17.118Z,99.90
2019-04-22T04:37:07.375Z,99.90
2019-04-22T04:38:03.817Z,99.90
2019-04-22T04:38:48.120Z,99.90
2019-04-22T04:39:18.837Z,99.90
2019-04-22T04:40:41.670Z,99.90
2019-04-22T04:41:06.278Z,99.90
2019-04-22T04:42:33.118Z,99.90
2019-04-22T04:42:54.330Z,99.90
2019-04-22T04:43:41.958Z,99.90
2019-04-22T04:44:15.154Z,99.90
2019-04-22T04:44:58.646Z,99.90
2019-04-22T04:45:55.190Z,99.90
2019-04-22T04:49:00.911Z,99.90
2019-04-22T04:50:06.903Z,99.90
2019-04-22T04:50:38.545Z,99.90
2019-04-22T04:51:30.993Z,99.90
2019-04-22T04:52:39.689Z,99.90
2019-04-22T04:53:19.108Z,99.90
2019-04-22T04:54:58.880Z,99.90
2019-04-22T04:55:28.500Z,99.90
2019-04-22T04:56:11.834Z,99.90
2019-04-22T04:56:44.326Z,99.90
2019-04-22T04:57:25.998Z,99.90
2019-04-22T04:58:47.424Z,99.90
2019-04-22T05:00:28.690Z,99.90
2019-04-22T05:00:39.753Z,99.90
2019-04-22T05:01:38.101Z,99.90
2019-04-22T05:02:12.294Z,99.90
2019-04-22T05:02:48.923Z,99.90
2019-04-22T05:03:21.420Z,99.90
2019-04-22T05:04:00.221Z,99.90
2019-04-22T05:04:40.872Z,99.90
2019-04-22T05:05:41.565Z,99.90
2019-04-22T05:06:22.189Z,99.90
2019-04-22T05:06:59.903Z,99.90
2019-04-22T05:07:36.132Z,99.90
2019-04-22T05:08:33.053Z,99.90
2019-04-22T05:09:21.316Z,99.90
2019-04-22T05:09:57.353Z,99.90
2019-04-22T05:10:42.714Z,99.90
2019-04-22T05:11:05.847Z,99.90
2019-04-22T05:12:27.623Z,99.90
2019-04-22T05:13:33.497Z,99.90
2019-04-22T05:14:06.064Z,99.90
2019-04-22T05:14:44.542Z,99.90
2019-04-22T05:15:21.584Z,99.90
2019-04-22T05:16:03.442Z,99.90
2019-04-22T05:16:34.414Z,99.90
2019-04-22T05:17:02.277Z,99.90
2019-04-22T05:18:23.283Z,99.90
2019-04-22T05:18:55.079Z,99.90
2019-04-22T05:19:26.037Z,99.90
2019-04-22T05:20:13.108Z,99.90
2019-04-22T05:20:52.858Z,99.90
2019-04-22T05:21:53.450Z,99.90
2019-04-22T05:22:28.283Z,99.90
2019-04-22T05:23:01.541Z,56.70
2019-04-22T05:23:45.354Z,67.20
2019-04-22T05:24:19.424Z,79.40
2019-04-22T05:24:53.756Z,99.90
2019-04-22T05:25:22.197Z,74.80
2019-04-22T05:26:05.832Z,90.70
2019-04-22T05:26:39.404Z,70.80
2019-04-22T05:27:23.454Z,68.80
2019-04-22T05:27:55.602Z,57.80
2019-04-22T05:28:24.567Z,46.10
2019-04-22T05:28:57.618Z,99.20
2019-04-22T05:29:54.236Z,42.30
2019-04-22T05:30:26.890Z,30.10
2019-04-22T05:30:47.109Z,27.60
2019-04-22T05:31:22.487Z,7.30
2019-04-22T05:31:56.935Z,27.80
2019-04-22T05:32:37.045Z,12.20
2019-04-22T05:33:08.738Z,28.00
2019-04-22T05:33:48.309Z,1.00
2019-04-22T05:34:23.794Z,4.30
2019-04-22T05:35:00.573Z,8.40
2019-04-22T05:35:37.911Z,5.90
2019-04-22T05:36:13.073Z,31.70
2019-04-22T05:36:48.398Z,5.60
2019-04-22T05:38:06.536Z,18.80
2019-04-22T05:38:40.210Z,17.60
2019-04-22T05:39:11.159Z,20.30
2019-04-22T05:39:54.498Z,23.30
2019-04-22T05:40:26.297Z,25.50
2019-04-22T05:40:56.584Z,51.70
2019-04-22T05:41:39.588Z,35.40
2019-04-22T05:42:49.434Z,87.10
2019-04-22T05:43:22.709Z,38.00
2019-04-22T05:44:02.806Z,35.80
2019-04-22T05:44:39.545Z,30.70
2019-04-22T05:45:49.465Z,43.10
2019-04-22T05:46:26.596Z,49.80
2019-04-22T05:46:58.874Z,66.20
2019-04-22T05:47:33.378Z,51.70
2019-04-22T05:48:13.653Z,49.30
2019-04-22T05:48:52.224Z,44.90
2019-04-22T05:49:25.666Z,57.10
2019-04-22T05:50:00.065Z,50.80
2019-04-22T05:50:26.937Z,56.40
2019-04-22T05:51:16.360Z,96.60
2019-04-22T05:52:21.382Z,37.50
2019-04-22T05:53:03.193Z,27.00
2019-04-22T05:53:37.633Z,26.40
2019-04-22T05:54:14.597Z,1.00
2019-04-22T05:54:48.676Z,1.00
2019-04-22T05:56:04.223Z,1.00
2019-04-22T05:56:37.127Z,1.00
2019-04-22T05:57:14.500Z,1.00
2019-04-22T05:57:44.339Z,1.00
2019-04-22T05:58:25.821Z,1.00
2019-04-22T05:59:39.599Z,1.00
2019-04-22T06:00:17.994Z,1.00
2019-04-22T06:01:21.754Z,1.00
2019-04-22T06:01:48.801Z,1.00
2019-04-22T06:02:53.064Z,1.00
2019-04-22T06:03:23.512Z,1.00
2019-04-22T06:04:07.321Z,1.00
2019-04-22T06:04:37.206Z,1.00
2019-04-22T06:05:11.911Z,1.00
2019-04-22T06:05:50.429Z,1.00
2019-04-22T06:06:25.646Z,1.00
2019-04-22T06:07:04.917Z,1.00
2019-04-22T06:07:38.659Z,1.00
2019-04-22T06:08:29.263Z,1.00
2019-04-22T06:08:50.959Z,1.00
2019-04-22T06:09:30.272Z,1.00
2019-04-22T06:10:14.282Z,1.00
2019-04-22T06:10:45.348Z,1.00
2019-04-22T06:11:22.845Z,1.00
2019-04-22T06:11:51.524Z,1.00
2019-04-22T06:12:29.776Z,1.00
2019-04-22T06:13:04.711Z,1.00
2019-04-22T06:13:41.805Z,1.00
2019-04-22T06:14:22.967Z,1.00
2019-04-22T06:14:58.115Z,1.00
2019-04-22T06:15:36.116Z,1.00
2019-04-22T06:16:09.242Z,1.00
2019-04-22T06:16:53.854Z,1.00
2019-04-22T06:17:31.782Z,1.00
2019-04-22T06:18:38.454Z,1.00
2019-04-22T06:19:18.837Z,1.00
2019-04-22T06:19:57.459Z,1.00
2019-04-22T06:20:42.064Z,1.00
2019-04-22T06:21:07.512Z,1.00
2019-04-22T06:21:49.999Z,1.00
2019-04-22T06:22:31.948Z,1.00
2019-04-22T06:23:42.653Z,1.00
2019-04-22T06:24:19.703Z,1.00
2019-04-22T06:24:49.392Z,1.00
2019-04-22T06:25:27.678Z,1.00
2019-04-22T06:26:10.083Z,1.00
2019-04-22T06:26:53.549Z,1.00
2019-04-22T06:28:36.682Z,1.00
2019-04-22T06:29:01.525Z,1.00
2019-04-22T06:29:36.849Z,1.00
2019-04-22T06:30:16.868Z,1.00
2019-04-22T06:31:36.994Z,1.00
2019-04-22T06:32:23.301Z,1.00
2019-04-22T06:32:55.466Z,1.00
2019-04-22T06:33:15.215Z,1.00
2019-04-22T06:33:54.759Z,1.00
2019-04-22T06:34:28.773Z,1.00
2019-04-22T06:35:09.428Z,1.00
2019-04-22T06:35:43.548Z,1.00
2019-04-22T06:36:15.847Z,1.00
2019-04-22T06:36:53.938Z,1.00
2019-04-22T06:37:36.674Z,1.00
2019-04-22T06:38:39.227Z,1.00
2019-04-22T06:39:23.499Z,1.00
2019-04-22T06:39:51.012Z,1.00
2019-04-22T06:40:31.689Z,1.00
2019-04-22T06:41:08.590Z,1.00
2019-04-22T06:41:43.919Z,1.00
2019-04-22T06:42:13.769Z,1.00
2019-04-22T06:43:01.076Z,1.00
2019-04-22T06:43:32.997Z,1.00
2019-04-22T06:44:05.039Z,1.00
2019-04-22T06:44:37.037Z,1.00
2019-04-22T06:45:19.016Z,1.00
2019-04-22T06:45:44.958Z,1.00
2019-04-22T06:46:27.186Z,1.00
2019-04-22T06:47:10.526Z,1.00
2019-04-22T06:47:52.696Z,1.00
2019-04-22T06:48:19.188Z,1.00
2019-04-22T06:48:48.981Z,1.00
2019-04-22T06:49:33.335Z,1.00
2019-04-22T06:49:59.114Z,1.00
2019-04-22T06:50:43.463Z,1.00
2019-04-22T06:51:24.443Z,1.00
2019-04-22T06:51:53.734Z,1.00
2019-04-22T06:52:22.346Z,1.00
2019-04-22T06:53:03.013Z,1.00
2019-04-22T06:53:40.794Z,1.00
2019-04-22T06:54:19.038Z,1.00
2019-04-22T06:54:54.845Z,1.00
2019-04-22T06:55:33.001Z,1.00
2019-04-22T06:55:59.728Z,1.00
2019-04-22T06:56:35.108Z,1.00
2019-04-22T06:57:15.011Z,1.00
2019-04-22T06:57:51.192Z,1.00
2019-04-22T06:58:39.902Z,1.00
2019-04-22T06:58:58.018Z,1.00
2019-04-22T06:59:38.016Z,1.00
2019-04-22T07:00:18.513Z,1.00
2019-04-22T07:00:44.597Z,1.00
2019-04-22T07:01:43.120Z,1.00
2019-04-22T07:02:55.880Z,1.00
2019-04-22T07:03:53.997Z,1.00
2019-04-22T07:04:29.690Z,1.00
2019-04-22T07:05:01.029Z,1.00
2019-04-22T07:05:41.261Z,1.00
2019-04-22T07:06:26.139Z,1.00
2019-04-22T07:07:00.105Z,1.00
2019-04-22T07:07:26.661Z,1.00
2019-04-22T07:08:16.437Z,1.00
2019-04-22T07:10:03.625Z,1.00
2019-04-22T07:11:13.847Z,99.90
2019-04-22T07:11:36.028Z,99.90
2019-04-22T07:12:18.379Z,1.00
2019-04-22T07:12:48.599Z,1.00
2019-04-22T07:13:32.737Z,99.90
2019-04-22T07:14:43.210Z,99.90
2019-04-22T07:15:24.397Z,99.90
2019-04-22T07:16:31.942Z,99.90
2019-04-22T07:17:01.830Z,99.90
2019-04-22T07:17:45.806Z,1.00
2019-04-22T07:18:25.685Z,99.90
2019-04-22T07:18:56.874Z,1.00
2019-04-22T07:19:33.722Z,1.00
2019-04-22T07:20:04.045Z,99.90
2019-04-22T07:20:44.188Z,99.90
2019-04-22T07:21:19.778Z,99.90
2019-04-22T07:21:57.167Z,1.00
2019-04-22T07:22:34.876Z,1.00
2019-04-22T07:23:10.648Z,99.90
2019-04-22T07:24:35.982Z,99.90
2019-04-22T07:25:34.966Z,1.00
2019-04-22T07:26:08.801Z,1.00
2019-04-22T07:26:49.182Z,48.40
2019-04-22T07:27:22.140Z,99.90
2019-04-22T07:27:58.601Z,1.00
2019-04-22T07:28:46.180Z,99.90
2019-04-22T07:29:07.667Z,1.00
2019-04-22T07:29:46.876Z,99.90
2019-04-22T07:30:23.531Z,1.00
2019-04-22T07:30:57.761Z,1.00
2019-04-22T07:31:49.864Z,1.00
2019-04-22T07:32:06.822Z,1.00
2019-04-22T07:33:04.569Z,1.00
2019-04-22T07:33:28.180Z,99.90
2019-04-22T07:34:02.346Z,99.90
2019-04-22T07:34:36.062Z,1.00
2019-04-22T07:35:17.963Z,99.90
2019-04-22T07:36:03.964Z,99.90
2019-04-22T07:36:39.098Z,1.00
2019-04-22T07:37:19.761Z,99.90
2019-04-22T07:38:10.801Z,11.00
2019-04-22T07:38:35.905Z,99.90
2019-04-22T07:39:26.355Z,1.00
2019-04-22T07:39:50.060Z,1.00
2019-04-22T07:40:40.134Z,1.00
2019-04-22T07:41:05.420Z,1.00
2019-04-22T07:41:49.384Z,99.90
2019-04-22T07:42:24.575Z,1.00
2019-04-22T07:42:59.186Z,99.90
2019-04-22T07:44:26.054Z,1.00
2019-04-22T07:44:45.062Z,1.00
2019-04-22T07:45:25.133Z,1.00
2019-04-22T07:45:56.468Z,1.00
2019-04-22T07:46:36.225Z,99.90
2019-04-22T07:47:13.970Z,99.90
2019-04-22T07:47:46.555Z,99.90
2019-04-22T07:48:33.490Z,99.90
2019-04-22T07:48:57.515Z,1.00
2019-04-22T07:50:12.820Z,1.00
2019-04-22T07:50:55.794Z,1.00
2019-04-22T07:51:23.790Z,1.00
2019-04-22T07:51:55.915Z,1.00
2019-04-22T07:52:35.424Z,1.00
2019-04-22T07:53:08.354Z,99.90
2019-04-22T07:53:43.261Z,99.90
2019-04-22T07:54:20.749Z,1.00
2019-04-22T07:54:56.953Z,99.90
2019-04-22T07:55:36.886Z,99.90
2019-04-22T07:56:05.333Z,99.90
2019-04-22T07:56:43.994Z,99.90
2019-04-22T07:58:01.215Z,99.90
2019-04-22T07:58:30.756Z,99.90
2019-04-22T07:59:10.661Z,99.90
2019-04-22T07:59:56.197Z,99.90
2019-04-22T08:00:27.613Z,99.90
2019-04-22T08:01:03.555Z,99.90
2019-04-22T08:01:30.570Z,99.90
2019-04-22T08:02:09.812Z,99.90
2019-04-22T08:03:29.104Z,99.90
2019-04-22T08:04:49.787Z,99.90
2019-04-22T08:05:26.080Z,99.90
2019-04-22T08:05:51.822Z,99.90
2019-04-22T08:06:26.289Z,99.90
2019-04-22T08:06:57.325Z,99.90
2019-04-22T08:08:16.068Z,99.90
2019-04-22T08:08:46.231Z,99.90
2019-04-22T08:11:30.182Z,99.90
2019-04-22T08:11:52.710Z,99.90
2019-04-22T08:12:26.871Z,99.90
2019-04-22T08:12:59.334Z,1.00
2019-04-22T08:13:36.632Z,1.00
2019-04-22T08:14:14.219Z,1.00
2019-04-22T08:14:45.943Z,1.00
2019-04-22T08:15:27.346Z,1.00
2019-04-22T08:16:38.604Z,1.00
2019-04-22T08:17:38.511Z,1.00
2019-04-22T08:18:00.267Z,1.00
2019-04-22T08:18:32.881Z,1.00
2019-04-22T08:19:03.140Z,1.00
2019-04-22T08:19:35.426Z,1.00
2019-04-22T08:20:16.713Z,1.00
2019-04-22T08:20:47.206Z,1.00
2019-04-22T08:21:22.367Z,1.00
2019-04-22T08:22:01.439Z,1.00
2019-04-22T08:22:39.487Z,1.00
2019-04-22T08:23:22.653Z,1.00
2019-04-22T08:23:54.109Z,1.00
2019-04-22T08:24:29.255Z,1.00
2019-04-22T08:25:01.922Z,9.30
2019-04-22T08:25:38.868Z,99.90
2019-04-22T08:26:12.057Z,1.00
2019-04-22T08:26:55.618Z,99.90
2019-04-22T08:27:22.543Z,1.00
2019-04-22T08:28:03.333Z,1.00
2019-04-22T08:28:40.987Z,99.90
2019-04-22T08:29:14.519Z,1.00
2019-04-22T08:30:00.096Z,1.00
2019-04-22T08:30:28.967Z,1.00
2019-04-22T08:31:05.252Z,99.90
2019-04-22T08:31:42.028Z,1.00
2019-04-22T08:32:18.040Z,1.00
2019-04-22T08:33:30.660Z,1.00
2019-04-22T08:34:01.962Z,1.00
2019-04-22T08:34:38.870Z,1.00
2019-04-22T08:35:26.779Z,1.00
2019-04-22T08:36:10.773Z,1.00
2019-04-22T08:36:28.179Z,1.00
2019-04-22T08:37:47.909Z,1.00
2019-04-22T08:38:11.585Z,1.00
2019-04-22T08:38:53.963Z,1.00
2019-04-22T08:39:25.608Z,1.00
2019-04-22T08:40:08.378Z,1.00
2019-04-22T08:41:08.375Z,1.00
2019-04-22T08:41:28.380Z,1.00
2019-04-22T08:41:52.012Z,1.00
2019-04-22T08:42:44.332Z,1.00
2019-04-22T08:43:13.964Z,1.00
2019-04-22T08:43:52.398Z,1.00
2019-04-22T08:44:27.947Z,1.00
2019-04-22T08:45:46.457Z,1.00
2019-04-22T08:46:27.320Z,1.00
2019-04-22T08:47:04.765Z,1.00
2019-04-22T08:47:36.190Z,1.00
2019-04-22T08:48:07.542Z,1.00
2019-04-22T08:48:52.810Z,99.90
2019-04-22T08:49:30.678Z,99.90
2019-04-22T08:50:41.308Z,1.00
2019-04-22T08:51:19.636Z,99.90
2019-04-22T08:51:50.258Z,99.90
2019-04-22T08:52:27.265Z,99.90
2019-04-22T08:53:06.168Z,99.90
2019-04-22T08:53:40.338Z,99.90
2019-04-22T08:54:11.816Z,99.90
2019-04-22T08:54:50.549Z,99.90
2019-04-22T08:55:31.313Z,99.90
2019-04-22T08:56:16.157Z,99.90
2019-04-22T08:57:18.251Z,99.90
2019-04-22T08:58:11.258Z,99.90
2019-04-22T08:58:29.498Z,99.90
2019-04-22T08:59:36.920Z,99.90
2019-04-22T09:00:15.458Z,99.90
2019-04-22T09:01:11.629Z,99.90
2019-04-22T09:02:10.162Z,99.90
2019-04-22T09:02:38.730Z,99.90
2019-04-22T09:03:11.148Z,99.90
2019-04-22T09:03:52.764Z,99.90
2019-04-22T09:04:16.601Z,99.90
2019-04-22T09:05:01.527Z,99.90
2019-04-22T09:05:49.986Z,99.90
2019-04-22T09:06:19.851Z,99.90
2019-04-22T09:07:30.289Z,99.90
2019-04-22T09:08:01.437Z,99.90
2019-04-22T09:08:10.927Z,99.90
2019-04-22T09:08:45.592Z,99.90
2019-04-22T09:09:11.411Z,99.90
2019-04-22T09:09:53.392Z,99.90
2019-04-22T09:10:33.905Z,99.90
2019-04-22T09:11:09.154Z,99.90
2019-04-22T09:11:41.918Z,99.90
2019-04-22T09:12:14.721Z,99.90
2019-04-22T09:12:57.864Z,99.90
2019-04-22T09:13:33.140Z,99.90
2019-04-22T09:14:01.662Z,99.90
2019-04-22T09:15:16.551Z,99.90
2019-04-22T09:15:49.577Z,99.90
2019-04-22T09:16:31.824Z,99.90
2019-04-22T09:17:07.450Z,99.90
2019-04-22T09:17:41.403Z,99.90
2019-04-22T09:18:14.534Z,99.90
2019-04-22T09:18:49.775Z,99.90
2019-04-22T09:19:27.009Z,99.90
2019-04-22T09:19:59.969Z,99.90
2019-04-22T09:20:40.751Z,99.90
2019-04-22T09:21:18.637Z,99.90
2019-04-22T09:21:54.558Z,99.90
2019-04-22T09:22:21.851Z,99.90
2019-04-22T09:23:45.673Z,99.90
2019-04-22T09:24:46.899Z,99.90
2019-04-22T09:25:24.139Z,99.90
2019-04-22T09:26:05.032Z,99.90
2019-04-22T09:27:23.368Z,99.90
2019-04-22T09:27:54.288Z,99.90
2019-04-22T09:28:34.625Z,99.90
2019-04-22T09:29:08.140Z,99.90
2019-04-22T09:29:41.586Z,99.90